PWSweather.com
Personal Weather Stations
Station Observations
KV9EWX
Winnebago, Il, Winnebago, IL 61088

Winnebago, IlWinnebago, IL 61088

Lat: 42.261175, Lon: -89.236369

Elevation: 892

Station Type: Lacrosse ws-2811

Latest ConditionsUpdated 9:33:07 PM CDT Tuesday, Jul 28, 2015
Currently Today's Max Today's Min Today's Average
Temperature 75.5°F24.2°C 88.7°F31.5°C 62.9°F17.2°C 76.1°F24.5°C
Dew Point 69.3°F20.7°C 75.1°F23.9°C 58.9°F14.9°C 67.6°F19.8°C
Winds 1.1 mph SSE1.8 kmh SSE 10.9 mph SSE17.5 kmh SSE - 2.7 mph 4.3 kmh
Wind Gusts 3.1 mph5.0 kmh 18.4 mph29.6 kmh - -
Humidity 81% 89% 58% 76%
Pressure 29.48 in998.3 mb 29.58 in1001.7 mb 29.43 in996.6 mb -
Hour Temp Dew Point Humidity Winds Wind Gusts Pressure Precip Precip Rate Daily Precip Total
09:33 PM 75.5°F24.2°C 69.3°F20.7°C 81% 1.1 mph SSE1.8 kmh SSE 3.1 mph5.0 kmh 29.48 in998.3 mb 0.00 in0.0 mm 0.00 in0.0 mm 0.00 in0.0 mm
09:28 PM 75.5°F24.2°C 69.3°F20.7°C 81% 1.0 mph SE1.6 kmh SE 4.4 mph7.1 kmh 29.48 in998.3 mb 0.00 in0.0 mm 0.00 in0.0 mm 0.00 in0.0 mm
09:23 PM 75.6°F24.2°C 69.4°F20.8°C 81% 1.9 mph SE3.1 kmh SE 4.4 mph7.1 kmh 29.49 in998.6 mb 0.00 in0.0 mm 0.00 in0.0 mm 0.00 in0.0 mm
09:18 PM 75.8°F24.3°C 69.6°F20.9°C 81% 0.9 mph S1.4 kmh S 3.5 mph5.6 kmh 29.50 in999.0 mb 0.00 in0.0 mm 0.00 in0.0 mm 0.00 in0.0 mm
09:13 PM 76.0°F24.4°C 69.4°F20.8°C 80% 1.4 mph SSE2.3 kmh SSE 3.5 mph5.6 kmh 29.49 in998.6 mb 0.00 in0.0 mm 0.00 in0.0 mm 0.00 in0.0 mm
09:08 PM 76.1°F24.5°C 69.6°F20.9°C 80% 1.2 mph SSE1.9 kmh SSE 3.5 mph5.6 kmh 29.50 in999.0 mb 0.00 in0.0 mm 0.00 in0.0 mm 0.00 in0.0 mm
09:03 PM 76.3°F24.6°C 69.5°F20.8°C 79% 2.0 mph S3.2 kmh S 3.9 mph6.3 kmh 29.50 in999.0 mb 0.00 in0.0 mm 0.00 in0.0 mm 0.00 in0.0 mm
08:58 PM 76.4°F24.7°C 69.6°F20.9°C 79% 0.9 mph SSE1.4 kmh SSE 3.9 mph6.3 kmh 29.50 in999.0 mb 0.00 in0.0 mm 0.00 in0.0 mm 0.00 in0.0 mm
08:53 PM 76.6°F24.8°C 69.7°F20.9°C 79% 1.5 mph SSE2.4 kmh SSE 3.1 mph5.0 kmh 29.50 in999.0 mb 0.00 in0.0 mm 0.00 in0.0 mm 0.00 in0.0 mm
08:48 PM 76.8°F24.9°C 69.9°F21.1°C 79% 1.1 mph SSE1.8 kmh SSE 3.5 mph5.6 kmh 29.50 in999.0 mb 0.00 in0.0 mm 0.00 in0.0 mm 0.00 in0.0 mm
08:42 PM 77.2°F25.1°C 70.3°F21.3°C 79% 1.5 mph SSE2.4 kmh SSE 3.5 mph5.6 kmh 29.50 in999.0 mb 0.00 in0.0 mm 0.00 in0.0 mm 0.00 in0.0 mm
08:37 PM 77.2°F25.1°C 69.9°F21.1°C 78% 1.5 mph SE2.4 kmh SE 3.1 mph5.0 kmh 29.50 in999.0 mb 0.00 in0.0 mm 0.00 in0.0 mm 0.00 in0.0 mm
08:33 PM 77.5°F25.3°C 70.2°F21.2°C 78% 1.0 mph SSE1.6 kmh SSE 1.9 mph3.1 kmh 29.50 in999.0 mb 0.00 in0.0 mm 0.00 in0.0 mm 0.00 in0.0 mm
08:27 PM 77.7°F25.4°C 70.4°F21.3°C 78% 0.4 mph SSE0.6 kmh SSE 1.9 mph3.1 kmh 29.51 in999.3 mb 0.00 in0.0 mm 0.00 in0.0 mm 0.00 in0.0 mm
08:22 PM 77.9°F25.5°C 70.2°F21.2°C 77% 1.0 mph SSE1.6 kmh SSE 2.8 mph4.5 kmh 29.51 in999.3 mb 0.00 in0.0 mm 0.00 in0.0 mm 0.00 in0.0 mm
08:17 PM 78.2°F25.7°C 70.5°F21.4°C 77% 0.3 mph S0.5 kmh S 2.8 mph4.5 kmh 29.51 in999.3 mb 0.00 in0.0 mm 0.00 in0.0 mm 0.00 in0.0 mm
08:12 PM 78.4°F25.8°C 70.3°F21.3°C 76% Calm Calm 0.7 mph1.1 kmh 29.50 in999.0 mb 0.00 in0.0 mm 0.00 in0.0 mm 0.00 in0.0 mm
08:07 PM 78.6°F25.9°C 70.5°F21.4°C 76% Calm Calm 1.2 mph1.9 kmh 29.51 in999.3 mb 0.00 in0.0 mm 0.00 in0.0 mm 0.00 in0.0 mm
08:02 PM 79.0°F26.1°C 70.9°F21.6°C 76% 0.7 mph SSE1.1 kmh SSE 1.2 mph1.9 kmh 29.51 in999.3 mb 0.00 in0.0 mm 0.00 in0.0 mm 0.00 in0.0 mm
07:57 PM 79.1°F26.2°C 70.6°F21.4°C 75% 1.0 mph SSE1.6 kmh SSE 1.2 mph1.9 kmh 29.50 in999.0 mb 0.00 in0.0 mm 0.00 in0.0 mm 0.00 in0.0 mm
07:52 PM 79.2°F26.2°C 71.2°F21.8°C 76% 0.6 mph SSE1.0 kmh SSE 3.1 mph5.0 kmh 29.51 in999.3 mb 0.00 in0.0 mm 0.00 in0.0 mm 0.00 in0.0 mm
07:47 PM 79.4°F26.3°C 71.4°F21.9°C 76% 0.9 mph SSE1.4 kmh SSE 3.1 mph5.0 kmh 29.50 in999.0 mb 0.00 in0.0 mm 0.00 in0.0 mm 0.00 in0.0 mm
07:42 PM 79.6°F26.4°C 71.6°F22.0°C 76% 0.8 mph S1.3 kmh S 2.3 mph3.7 kmh 29.50 in999.0 mb 0.00 in0.0 mm 0.00 in0.0 mm 0.00 in0.0 mm
07:37 PM 79.9°F26.6°C 71.8°F22.1°C 76% 1.3 mph S2.1 kmh S 2.3 mph3.7 kmh 29.50 in999.0 mb 0.00 in0.0 mm 0.00 in0.0 mm 0.00 in0.0 mm
07:32 PM 79.9°F26.6°C 71.8°F22.1°C 76% 0.8 mph SE1.3 kmh SE 1.9 mph3.1 kmh 29.49 in998.6 mb 0.00 in0.0 mm 0.00 in0.0 mm 0.00 in0.0 mm
07:27 PM 80.1°F26.7°C 71.7°F22.1°C 75% 0.4 mph SSW0.6 kmh SSW 1.9 mph3.1 kmh 29.49 in998.6 mb 0.00 in0.0 mm 0.00 in0.0 mm 0.00 in0.0 mm
07:22 PM 80.3°F26.8°C 71.8°F22.1°C 75% Calm Calm 1.9 mph3.1 kmh 29.49 in998.6 mb 0.00 in0.0 mm 0.00 in0.0 mm 0.00 in0.0 mm
07:17 PM 80.5°F26.9°C 72.0°F22.2°C 75% 0.9 mph S1.4 kmh S 2.8 mph4.5 kmh 29.49 in998.6 mb 0.00 in0.0 mm 0.00 in0.0 mm 0.00 in0.0 mm
07:12 PM 80.7°F27.1°C 71.8°F22.1°C 74% 0.9 mph SSW1.4 kmh SSW 3.1 mph5.0 kmh 29.49 in998.6 mb 0.00 in0.0 mm 0.00 in0.0 mm 0.00 in0.0 mm
07:07 PM 80.7°F27.1°C 71.8°F22.1°C 74% 1.7 mph S2.7 kmh S 3.1 mph5.0 kmh 29.48 in998.3 mb 0.00 in0.0 mm 0.00 in0.0 mm 0.00 in0.0 mm
07:02 PM 80.8°F27.1°C 71.5°F21.9°C 73% 1.1 mph SSW1.8 kmh SSW 3.1 mph5.0 kmh 29.48 in998.3 mb 0.00 in0.0 mm 0.00 in0.0 mm 0.00 in0.0 mm
06:57 PM 81.0°F27.2°C 71.7°F22.1°C 73% 1.3 mph SW2.1 kmh SW 3.5 mph5.6 kmh 29.48 in998.3 mb 0.00 in0.0 mm 0.00 in0.0 mm 0.00 in0.0 mm
06:52 PM 81.2°F27.3°C 71.5°F21.9°C 72% 1.5 mph SSW2.4 kmh SSW 3.5 mph5.6 kmh 29.48 in998.3 mb 0.00 in0.0 mm 0.00 in0.0 mm 0.00 in0.0 mm
06:47 PM 81.4°F27.4°C 71.7°F22.1°C 72% 2.0 mph S3.2 kmh S 9.4 mph15.1 kmh 29.48 in998.3 mb 0.00 in0.0 mm 0.00 in0.0 mm 0.00 in0.0 mm
06:42 PM 81.7°F27.6°C 72.0°F22.2°C 72% 2.3 mph S3.7 kmh S 9.4 mph15.1 kmh 29.48 in998.3 mb 0.00 in0.0 mm 0.00 in0.0 mm 0.00 in0.0 mm
06:37 PM 82.1°F27.8°C 72.4°F22.4°C 72% 3.3 mph S5.3 kmh S 7.0 mph11.3 kmh 29.48 in998.3 mb 0.00 in0.0 mm 0.00 in0.0 mm 0.00 in0.0 mm
06:32 PM 82.4°F28.0°C 72.7°F22.6°C 72% 2.7 mph S4.3 kmh S 4.7 mph7.6 kmh 29.48 in998.3 mb 0.00 in0.0 mm 0.00 in0.0 mm 0.00 in0.0 mm
06:27 PM 82.7°F28.2°C 73.0°F22.8°C 72% 2.2 mph SSW3.5 kmh SSW 7.0 mph11.3 kmh 29.48 in998.3 mb 0.00 in0.0 mm 0.00 in0.0 mm 0.00 in0.0 mm
06:22 PM 82.9°F28.3°C 73.2°F22.9°C 72% 3.1 mph S5.0 kmh S 7.5 mph12.1 kmh 29.48 in998.3 mb 0.00 in0.0 mm 0.00 in0.0 mm 0.00 in0.0 mm
06:17 PM 83.1°F28.4°C 73.0°F22.8°C 71% 2.9 mph S4.7 kmh S 7.5 mph12.1 kmh 29.48 in998.3 mb 0.00 in0.0 mm 0.00 in0.0 mm 0.00 in0.0 mm
06:12 PM 83.4°F28.6°C 72.8°F22.7°C 70% 3.9 mph SSW6.3 kmh SSW 9.4 mph15.1 kmh 29.49 in998.6 mb 0.00 in0.0 mm 0.00 in0.0 mm 0.00 in0.0 mm
06:07 PM 83.6°F28.7°C 73.0°F22.8°C 70% 5.1 mph S8.2 kmh S 9.4 mph15.1 kmh 29.49 in998.6 mb 0.00 in0.0 mm 0.00 in0.0 mm 0.00 in0.0 mm
06:02 PM 83.8°F28.8°C 73.6°F23.1°C 71% 2.7 mph S4.3 kmh S 9.8 mph15.8 kmh 29.49 in998.6 mb 0.00 in0.0 mm 0.00 in0.0 mm 0.00 in0.0 mm
05:57 PM 84.0°F28.9°C 73.4°F23.0°C 70% 5.0 mph SSW8.0 kmh SSW 13.7 mph22.0 kmh 29.50 in999.0 mb 0.00 in0.0 mm 0.00 in0.0 mm 0.00 in0.0 mm
05:52 PM 84.2°F29.0°C 74.0°F23.3°C 71% 5.9 mph SSW9.5 kmh SSW 13.7 mph22.0 kmh 29.50 in999.0 mb 0.00 in0.0 mm 0.00 in0.0 mm 0.00 in0.0 mm
05:47 PM 84.5°F29.2°C 74.3°F23.5°C 71% 5.1 mph S8.2 kmh S 9.4 mph15.1 kmh 29.49 in998.6 mb 0.00 in0.0 mm 0.00 in0.0 mm 0.00 in0.0 mm
05:42 PM 84.7°F29.3°C 74.5°F23.6°C 71% 2.8 mph S4.5 kmh S 9.4 mph15.1 kmh 29.49 in998.6 mb 0.00 in0.0 mm 0.00 in0.0 mm 0.00 in0.0 mm
05:37 PM 84.7°F29.3°C 74.5°F23.6°C 71% 2.5 mph S4.0 kmh S 8.2 mph13.2 kmh 29.49 in998.6 mb 0.00 in0.0 mm 0.00 in0.0 mm 0.00 in0.0 mm
05:32 PM 84.9°F29.4°C 74.2°F23.4°C 70% 4.6 mph S7.4 kmh S 8.2 mph13.2 kmh 29.48 in998.3 mb 0.00 in0.0 mm 0.00 in0.0 mm 0.00 in0.0 mm
05:27 PM 84.9°F29.4°C 74.7°F23.7°C 71% 3.3 mph S5.3 kmh S 7.5 mph12.1 kmh 29.48 in998.3 mb 0.00 in0.0 mm 0.00 in0.0 mm 0.00 in0.0 mm
05:22 PM 84.7°F29.3°C 74.5°F23.6°C 71% 3.8 mph S6.1 kmh S 7.5 mph12.1 kmh 29.48 in998.3 mb 0.00 in0.0 mm 0.00 in0.0 mm 0.00 in0.0 mm
05:17 PM 84.3°F29.1°C 74.5°F23.6°C 72% 4.5 mph S7.2 kmh S 8.2 mph13.2 kmh 29.48 in998.3 mb 0.00 in0.0 mm 0.00 in0.0 mm 0.00 in0.0 mm
05:12 PM 84.0°F28.9°C 74.2°F23.4°C 72% 4.4 mph S7.1 kmh S 12.1 mph19.5 kmh 29.48 in998.3 mb 0.00 in0.0 mm 0.00 in0.0 mm 0.00 in0.0 mm
05:07 PM 83.6°F28.7°C 73.9°F23.3°C 72% 6.4 mph S10.3 kmh S 12.1 mph19.5 kmh 29.48 in998.3 mb 0.00 in0.0 mm 0.00 in0.0 mm 0.00 in0.0 mm
05:02 PM 83.3°F28.5°C 74.0°F23.3°C 73% 3.3 mph S5.3 kmh S 10.5 mph16.9 kmh 29.48 in998.3 mb 0.00 in0.0 mm 0.00 in0.0 mm 0.00 in0.0 mm
04:57 PM 83.1°F28.4°C 73.8°F23.2°C 73% 4.5 mph S7.2 kmh S 9.4 mph15.1 kmh 29.48 in998.3 mb 0.00 in0.0 mm 0.00 in0.0 mm 0.00 in0.0 mm
04:52 PM 82.7°F28.2°C 73.8°F23.2°C 74% 4.8 mph S7.7 kmh S 12.1 mph19.5 kmh 29.48 in998.3 mb 0.00 in0.0 mm 0.00 in0.0 mm 0.00 in0.0 mm
04:47 PM 82.5°F28.1°C 73.6°F23.1°C 74% 6.2 mph S10.0 kmh S 12.1 mph19.5 kmh 29.48 in998.3 mb 0.00 in0.0 mm 0.00 in0.0 mm 0.00 in0.0 mm
04:42 PM 82.4°F28.0°C 73.5°F23.1°C 74% 5.8 mph S9.3 kmh S 9.8 mph15.8 kmh 29.48 in998.3 mb 0.00 in0.0 mm 0.00 in0.0 mm 0.00 in0.0 mm
04:37 PM 82.1°F27.8°C 73.5°F23.1°C 75% 4.9 mph S7.9 kmh S 9.8 mph15.8 kmh 29.48 in998.3 mb 0.00 in0.0 mm 0.00 in0.0 mm 0.00 in0.0 mm
04:32 PM 82.1°F27.8°C 73.9°F23.3°C 76% 3.4 mph SSW5.5 kmh SSW 10.2 mph16.4 kmh 29.47 in998.0 mb 0.00 in0.0 mm 0.00 in0.0 mm 0.00 in0.0 mm
04:27 PM 81.9°F27.7°C 73.7°F23.2°C 76% 3.2 mph S5.1 kmh S 10.2 mph16.4 kmh 29.47 in998.0 mb 0.00 in0.0 mm 0.00 in0.0 mm 0.00 in0.0 mm
04:22 PM 81.7°F27.6°C 73.5°F23.1°C 76% 3.9 mph S6.3 kmh S 8.2 mph13.2 kmh 29.47 in998.0 mb 0.00 in0.0 mm 0.00 in0.0 mm 0.00 in0.0 mm
04:17 PM 81.6°F27.6°C 73.4°F23.0°C 76% 3.2 mph S5.1 kmh S 9.4 mph15.1 kmh 29.46 in997.6 mb 0.00 in0.0 mm 0.00 in0.0 mm 0.00 in0.0 mm
04:12 PM 81.7°F27.6°C 73.2°F22.9°C 75% 4.3 mph SSW6.9 kmh SSW 9.4 mph15.1 kmh 29.47 in998.0 mb 0.00 in0.0 mm 0.00 in0.0 mm 0.00 in0.0 mm
04:07 PM 81.7°F27.6°C 72.8°F22.7°C 74% 3.5 mph S5.6 kmh S 9.4 mph15.1 kmh 29.47 in998.0 mb 0.00 in0.0 mm 0.00 in0.0 mm 0.00 in0.0 mm
04:02 PM 81.6°F27.6°C 72.7°F22.6°C 74% 5.1 mph S8.2 kmh S 11.7 mph18.8 kmh 29.46 in997.6 mb 0.00 in0.0 mm 0.00 in0.0 mm 0.00 in0.0 mm
03:57 PM 81.7°F27.6°C 72.8°F22.7°C 74% 4.6 mph S7.4 kmh S 11.7 mph18.8 kmh 29.46 in997.6 mb 0.00 in0.0 mm 0.00 in0.0 mm 0.00 in0.0 mm
03:52 PM 81.6°F27.6°C 72.7°F22.6°C 74% 6.5 mph S10.5 kmh S 11.7 mph18.8 kmh 29.46 in997.6 mb 0.00 in0.0 mm 0.00 in0.0 mm 0.00 in0.0 mm
03:47 PM 81.7°F27.6°C 72.8°F22.7°C 74% 6.3 mph S10.1 kmh S 11.0 mph17.7 kmh 29.46 in997.6 mb 0.00 in0.0 mm 0.00 in0.0 mm 0.00 in0.0 mm
03:42 PM 81.9°F27.7°C 72.6°F22.6°C 73% 5.8 mph S9.3 kmh S 11.0 mph17.7 kmh 29.46 in997.6 mb 0.00 in0.0 mm 0.00 in0.0 mm 0.00 in0.0 mm
03:37 PM 81.9°F27.7°C 73.0°F22.8°C 74% 4.9 mph S7.9 kmh S 11.0 mph17.7 kmh 29.47 in998.0 mb 0.00 in0.0 mm 0.00 in0.0 mm 0.00 in0.0 mm
03:32 PM 81.7°F27.6°C 72.4°F22.4°C 73% 5.3 mph S8.5 kmh S 13.7 mph22.0 kmh 29.47 in998.0 mb 0.00 in0.0 mm 0.00 in0.0 mm 0.00 in0.0 mm
03:27 PM 82.1°F27.8°C 72.8°F22.7°C 73% 4.7 mph S7.6 kmh S 13.7 mph22.0 kmh 29.47 in998.0 mb 0.00 in0.0 mm 0.00 in0.0 mm 0.00 in0.0 mm
03:22 PM 82.3°F27.9°C 72.5°F22.5°C 72% 5.3 mph S8.5 kmh S 11.0 mph17.7 kmh 29.46 in997.6 mb 0.00 in0.0 mm 0.00 in0.0 mm 0.00 in0.0 mm
03:17 PM 82.5°F28.1°C 72.4°F22.4°C 71% 6.1 mph SSE9.8 kmh SSE 18.4 mph29.6 kmh 29.45 in997.3 mb 0.00 in0.0 mm 0.00 in0.0 mm 0.00 in0.0 mm
03:12 PM 83.1°F28.4°C 73.0°F22.8°C 71% 10.5 mph S16.9 kmh S 18.4 mph29.6 kmh 29.45 in997.3 mb 0.00 in0.0 mm 0.00 in0.0 mm 0.00 in0.0 mm
03:07 PM 83.8°F28.8°C 72.8°F22.7°C 69% 10.2 mph S16.4 kmh S 16.1 mph25.9 kmh 29.43 in996.6 mb 0.00 in0.0 mm 0.00 in0.0 mm 0.00 in0.0 mm
03:02 PM 84.3°F29.1°C 72.8°F22.7°C 68% 10.3 mph SSE16.6 kmh SSE 16.8 mph27.0 kmh 29.43 in996.6 mb 0.00 in0.0 mm 0.00 in0.0 mm 0.00 in0.0 mm
02:57 PM 84.9°F29.4°C 73.4°F23.0°C 68% 9.1 mph S14.6 kmh S 16.8 mph27.0 kmh 29.43 in996.6 mb 0.00 in0.0 mm 0.00 in0.0 mm 0.00 in0.0 mm
02:52 PM 85.6°F29.8°C 73.2°F22.9°C 66% 10.9 mph SSE17.5 kmh SSE 16.8 mph27.0 kmh 29.44 in997.0 mb 0.00 in0.0 mm 0.00 in0.0 mm 0.00 in0.0 mm
02:47 PM 85.9°F29.9°C 73.5°F23.1°C 66% 8.2 mph S13.2 kmh S 15.2 mph24.5 kmh 29.43 in996.6 mb 0.00 in0.0 mm 0.00 in0.0 mm 0.00 in0.0 mm
02:42 PM 85.6°F29.8°C 73.2°F22.9°C 66% 8.8 mph SSE14.2 kmh SSE 15.6 mph25.1 kmh 29.44 in997.0 mb 0.00 in0.0 mm 0.00 in0.0 mm 0.00 in0.0 mm
02:37 PM 85.2°F29.6°C 73.2°F22.9°C 67% 8.6 mph S13.8 kmh S 15.6 mph25.1 kmh 29.45 in997.3 mb 0.00 in0.0 mm 0.00 in0.0 mm 0.00 in0.0 mm
02:32 PM 84.2°F29.0°C 72.3°F22.4°C 67% 6.5 mph SE10.5 kmh SE 13.7 mph22.0 kmh 29.46 in997.6 mb 0.00 in0.0 mm 0.00 in0.0 mm 0.00 in0.0 mm
02:27 PM 83.4°F28.6°C 72.8°F22.7°C 70% 4.5 mph S7.2 kmh S 14.9 mph24.0 kmh 29.48 in998.3 mb 0.00 in0.0 mm 0.00 in0.0 mm 0.00 in0.0 mm
02:22 PM 84.0°F28.9°C 73.0°F22.8°C 69% 6.5 mph S10.5 kmh S 14.9 mph24.0 kmh 29.49 in998.6 mb 0.00 in0.0 mm 0.00 in0.0 mm 0.00 in0.0 mm
02:17 PM 84.9°F29.4°C 73.8°F23.2°C 69% 5.4 mph SSE8.7 kmh SSE 9.4 mph15.1 kmh 29.50 in999.0 mb 0.00 in0.0 mm 0.00 in0.0 mm 0.00 in0.0 mm
02:12 PM 85.6°F29.8°C 73.6°F23.1°C 67% 5.3 mph S8.5 kmh S 9.4 mph15.1 kmh 29.51 in999.3 mb 0.00 in0.0 mm 0.00 in0.0 mm 0.00 in0.0 mm
02:07 PM 86.0°F30.0°C 74.5°F23.6°C 68% 3.1 mph SSW5.0 kmh SSW 9.4 mph15.1 kmh 29.52 in999.7 mb 0.00 in0.0 mm 0.00 in0.0 mm 0.00 in0.0 mm
02:02 PM 85.7°F29.8°C 74.2°F23.4°C 68% 2.5 mph SSE4.0 kmh SSE 9.4 mph15.1 kmh 29.52 in999.7 mb 0.00 in0.0 mm 0.00 in0.0 mm 0.00 in0.0 mm
01:57 PM 85.9°F29.9°C 74.8°F23.8°C 69% 4.6 mph SSW7.4 kmh SSW 7.5 mph12.1 kmh 29.53 in1000.0 mb 0.00 in0.0 mm 0.00 in0.0 mm 0.00 in0.0 mm
01:52 PM 85.7°F29.8°C 75.1°F23.9°C 70% 3.9 mph S6.3 kmh S 11.7 mph18.8 kmh 29.54 in1000.3 mb 0.00 in0.0 mm 0.00 in0.0 mm 0.00 in0.0 mm
01:47 PM 84.9°F29.4°C 74.7°F23.7°C 71% 6.2 mph S10.0 kmh S 11.7 mph18.8 kmh 29.55 in1000.7 mb 0.00 in0.0 mm 0.00 in0.0 mm 0.00 in0.0 mm
01:42 PM 84.5°F29.2°C 74.3°F23.5°C 71% 2.2 mph WSW3.5 kmh WSW 8.2 mph13.2 kmh 29.55 in1000.7 mb 0.00 in0.0 mm 0.00 in0.0 mm 0.00 in0.0 mm
01:37 PM 84.3°F29.1°C 73.7°F23.2°C 70% 3.5 mph S5.6 kmh S 8.2 mph13.2 kmh 29.55 in1000.7 mb 0.00 in0.0 mm 0.00 in0.0 mm 0.00 in0.0 mm
01:32 PM 84.2°F29.0°C 74.0°F23.3°C 71% 2.6 mph S4.2 kmh S 8.6 mph13.8 kmh 29.55 in1000.7 mb 0.00 in0.0 mm 0.00 in0.0 mm 0.00 in0.0 mm
01:27 PM 84.3°F29.1°C 74.1°F23.4°C 71% 5.1 mph SSW8.2 kmh SSW 8.6 mph13.8 kmh 29.55 in1000.7 mb 0.00 in0.0 mm 0.00 in0.0 mm 0.00 in0.0 mm
01:22 PM 84.5°F29.2°C 73.9°F23.3°C 70% 2.4 mph S3.9 kmh S 7.5 mph12.1 kmh 29.55 in1000.7 mb 0.00 in0.0 mm 0.00 in0.0 mm 0.00 in0.0 mm
01:17 PM 84.5°F29.2°C 73.5°F23.1°C 69% 3.0 mph S4.8 kmh S 7.5 mph12.1 kmh 29.55 in1000.7 mb 0.00 in0.0 mm 0.00 in0.0 mm 0.00 in0.0 mm
01:12 PM 84.7°F29.3°C 72.8°F22.7°C 67% 3.2 mph S5.1 kmh S 7.9 mph12.7 kmh 29.55 in1000.7 mb 0.00 in0.0 mm 0.00 in0.0 mm 0.00 in0.0 mm
01:07 PM 85.1°F29.5°C 72.7°F22.6°C 66% 4.5 mph SSW7.2 kmh SSW 7.9 mph12.7 kmh 29.56 in1001.0 mb 0.00 in0.0 mm 0.00 in0.0 mm 0.00 in0.0 mm
01:01 PM 85.7°F29.8°C 72.9°F22.7°C 65% 4.2 mph SSW6.8 kmh SSW 6.7 mph10.8 kmh 29.56 in1001.0 mb 0.00 in0.0 mm 0.00 in0.0 mm 0.00 in0.0 mm
12:57 PM 86.2°F30.1°C 72.9°F22.7°C 64% 0.7 mph SSW1.1 kmh SSW 6.0 mph9.7 kmh 29.56 in1001.0 mb 0.00 in0.0 mm 0.00 in0.0 mm 0.00 in0.0 mm
12:52 PM 86.6°F30.3°C 72.8°F22.7°C 63% 2.1 mph S3.4 kmh S 8.2 mph13.2 kmh 29.57 in1001.4 mb 0.00 in0.0 mm 0.00 in0.0 mm 0.00 in0.0 mm
12:46 PM 86.9°F30.5°C 73.6°F23.1°C 64% 3.1 mph SW5.0 kmh SW 8.2 mph13.2 kmh 29.57 in1001.4 mb 0.00 in0.0 mm 0.00 in0.0 mm 0.00 in0.0 mm
12:41 PM 86.9°F30.5°C 73.6°F23.1°C 64% 2.2 mph SSW3.5 kmh SSW 8.2 mph13.2 kmh 29.57 in1001.4 mb 0.00 in0.0 mm 0.00 in0.0 mm 0.00 in0.0 mm
12:36 PM 86.8°F30.4°C 73.0°F22.8°C 63% 2.7 mph SW4.3 kmh SW 8.9 mph14.3 kmh 29.58 in1001.7 mb 0.00 in0.0 mm 0.00 in0.0 mm 0.00 in0.0 mm
12:32 PM 87.3°F30.7°C 73.0°F22.8°C 62% 3.4 mph S5.5 kmh S 9.4 mph15.1 kmh 29.58 in1001.7 mb 0.00 in0.0 mm 0.00 in0.0 mm 0.00 in0.0 mm
12:26 PM 87.5°F30.8°C 73.2°F22.9°C 62% 5.5 mph S8.9 kmh S 9.4 mph15.1 kmh 29.57 in1001.4 mb 0.00 in0.0 mm 0.00 in0.0 mm 0.00 in0.0 mm
12:21 PM 87.1°F30.6°C 73.7°F23.2°C 64% 3.5 mph S5.6 kmh S 7.9 mph12.7 kmh 29.57 in1001.4 mb 0.00 in0.0 mm 0.00 in0.0 mm 0.00 in0.0 mm
12:16 PM 86.2°F30.1°C 72.9°F22.7°C 64% 4.7 mph S7.6 kmh S 8.9 mph14.3 kmh 29.57 in1001.4 mb 0.00 in0.0 mm 0.00 in0.0 mm 0.00 in0.0 mm
12:11 PM 86.0°F30.0°C 72.3°F22.4°C 63% 4.1 mph S6.6 kmh S 8.9 mph14.3 kmh 29.56 in1001.0 mb 0.00 in0.0 mm 0.00 in0.0 mm 0.00 in0.0 mm
12:06 PM 86.4°F30.2°C 72.6°F22.6°C 63% 3.3 mph S5.3 kmh S 7.0 mph11.3 kmh 29.56 in1001.0 mb 0.00 in0.0 mm 0.00 in0.0 mm 0.00 in0.0 mm
12:01 PM 86.6°F30.3°C 72.8°F22.7°C 63% 1.8 mph SSW2.9 kmh SSW 10.5 mph16.9 kmh 29.56 in1001.0 mb 0.00 in0.0 mm 0.00 in0.0 mm 0.00 in0.0 mm
11:56 AM 86.4°F30.2°C 72.6°F22.6°C 63% 5.1 mph S8.2 kmh S 10.5 mph16.9 kmh 29.56 in1001.0 mb 0.00 in0.0 mm 0.00 in0.0 mm 0.00 in0.0 mm
11:51 AM 86.4°F30.2°C 72.1°F22.3°C 62% 4.7 mph SSE7.6 kmh SSE 8.2 mph13.2 kmh 29.56 in1001.0 mb 0.00 in0.0 mm 0.00 in0.0 mm 0.00 in0.0 mm
11:46 AM 86.6°F30.3°C 72.3°F22.4°C 62% 4.7 mph S7.6 kmh S 11.4 mph18.3 kmh 29.56 in1001.0 mb 0.00 in0.0 mm 0.00 in0.0 mm 0.00 in0.0 mm
11:41 AM 86.9°F30.5°C 72.6°F22.6°C 62% 5.7 mph S9.2 kmh S 11.4 mph18.3 kmh 29.55 in1000.7 mb 0.00 in0.0 mm 0.00 in0.0 mm 0.00 in0.0 mm
11:36 AM 87.1°F30.6°C 72.3°F22.4°C 61% 6.2 mph SE10.0 kmh SE 10.2 mph16.4 kmh 29.56 in1001.0 mb 0.00 in0.0 mm 0.00 in0.0 mm 0.00 in0.0 mm
11:31 AM 87.3°F30.7°C 72.5°F22.5°C 61% 6.9 mph S11.1 kmh S 10.2 mph16.4 kmh 29.56 in1001.0 mb 0.00 in0.0 mm 0.00 in0.0 mm 0.00 in0.0 mm
11:26 AM 87.1°F30.6°C 72.8°F22.7°C 62% 2.5 mph SSW4.0 kmh SSW 9.4 mph15.1 kmh 29.56 in1001.0 mb 0.00 in0.0 mm 0.00 in0.0 mm 0.00 in0.0 mm
11:21 AM 87.3°F30.7°C 72.5°F22.5°C 61% 4.1 mph S6.6 kmh S 11.7 mph18.8 kmh 29.56 in1001.0 mb 0.00 in0.0 mm 0.00 in0.0 mm 0.00 in0.0 mm
11:16 AM 87.7°F30.9°C 71.9°F22.2°C 59% 4.1 mph S6.6 kmh S 11.7 mph18.8 kmh 29.56 in1001.0 mb 0.00 in0.0 mm 0.00 in0.0 mm 0.00 in0.0 mm
11:11 AM 88.4°F31.3°C 73.0°F22.8°C 60% 5.1 mph SSE8.2 kmh SSE 10.2 mph16.4 kmh 29.56 in1001.0 mb 0.00 in0.0 mm 0.00 in0.0 mm 0.00 in0.0 mm
11:06 AM 88.0°F31.1°C 72.6°F22.6°C 60% 3.1 mph S5.0 kmh S 10.2 mph16.4 kmh 29.56 in1001.0 mb 0.00 in0.0 mm 0.00 in0.0 mm 0.00 in0.0 mm
11:01 AM 88.0°F31.1°C 72.6°F22.6°C 60% 4.1 mph SSE6.6 kmh SSE 10.2 mph16.4 kmh 29.57 in1001.4 mb 0.00 in0.0 mm 0.00 in0.0 mm 0.00 in0.0 mm
10:56 AM 88.0°F31.1°C 72.6°F22.6°C 60% 3.5 mph SSW5.6 kmh SSW 9.4 mph15.1 kmh 29.56 in1001.0 mb 0.00 in0.0 mm 0.00 in0.0 mm 0.00 in0.0 mm
10:51 AM 88.2°F31.2°C 72.8°F22.7°C 60% 4.0 mph SSE6.4 kmh SSE 8.6 mph13.8 kmh 29.56 in1001.0 mb 0.00 in0.0 mm 0.00 in0.0 mm 0.00 in0.0 mm
10:46 AM 87.8°F31.0°C 73.4°F23.0°C 62% 4.0 mph S6.4 kmh S 7.5 mph12.1 kmh 29.56 in1001.0 mb 0.00 in0.0 mm 0.00 in0.0 mm 0.00 in0.0 mm
10:41 AM 87.3°F30.7°C 72.5°F22.5°C 61% 3.4 mph S5.5 kmh S 10.5 mph16.9 kmh 29.57 in1001.4 mb 0.00 in0.0 mm 0.00 in0.0 mm 0.00 in0.0 mm
10:36 AM 88.4°F31.3°C 72.0°F22.2°C 58% 3.1 mph SSW5.0 kmh SSW 10.5 mph16.9 kmh 29.57 in1001.4 mb 0.00 in0.0 mm 0.00 in0.0 mm 0.00 in0.0 mm
10:31 AM 88.7°F31.5°C 73.3°F22.9°C 60% 3.0 mph SE4.8 kmh SE 7.9 mph12.7 kmh 29.56 in1001.0 mb 0.00 in0.0 mm 0.00 in0.0 mm 0.00 in0.0 mm
10:26 AM 88.4°F31.3°C 73.0°F22.8°C 60% 4.7 mph S7.6 kmh S 7.9 mph12.7 kmh 29.57 in1001.4 mb 0.00 in0.0 mm 0.00 in0.0 mm 0.00 in0.0 mm
10:21 AM 88.2°F31.2°C 73.3°F22.9°C 61% 3.0 mph S4.8 kmh S 6.3 mph10.1 kmh 29.57 in1001.4 mb 0.00 in0.0 mm 0.00 in0.0 mm 0.00 in0.0 mm
10:16 AM 87.3°F30.7°C 73.0°F22.8°C 62% 3.3 mph S5.3 kmh S 6.0 mph9.7 kmh 29.57 in1001.4 mb 0.00 in0.0 mm 0.00 in0.0 mm 0.00 in0.0 mm
10:11 AM 86.0°F30.0°C 72.3°F22.4°C 63% 2.4 mph SE3.9 kmh SE 7.0 mph11.3 kmh 29.57 in1001.4 mb 0.00 in0.0 mm 0.00 in0.0 mm 0.00 in0.0 mm
10:06 AM 85.1°F29.5°C 71.3°F21.8°C 63% 2.7 mph S4.3 kmh S 8.2 mph13.2 kmh 29.57 in1001.4 mb 0.00 in0.0 mm 0.00 in0.0 mm 0.00 in0.0 mm
10:01 AM 84.7°F29.3°C 71.0°F21.7°C 63% 4.7 mph S7.6 kmh S 8.2 mph13.2 kmh 29.57 in1001.4 mb 0.00 in0.0 mm 0.00 in0.0 mm 0.00 in0.0 mm
09:56 AM 84.3°F29.1°C 71.1°F21.7°C 64% 5.9 mph S9.5 kmh S 8.2 mph13.2 kmh 29.57 in1001.4 mb 0.00 in0.0 mm 0.00 in0.0 mm 0.00 in0.0 mm
09:51 AM 82.9°F28.3°C 71.1°F21.7°C 67% 2.4 mph S3.9 kmh S 5.1 mph8.2 kmh 29.57 in1001.4 mb 0.00 in0.0 mm 0.00 in0.0 mm 0.00 in0.0 mm
09:46 AM 81.4°F27.4°C 70.5°F21.4°C 69% 2.6 mph S4.2 kmh S 7.9 mph12.7 kmh 29.57 in1001.4 mb 0.00 in0.0 mm 0.00 in0.0 mm 0.00 in0.0 mm
09:41 AM 80.5°F26.9°C 68.8°F20.4°C 67% 4.0 mph S6.4 kmh S 7.9 mph12.7 kmh 29.57 in1001.4 mb 0.00 in0.0 mm 0.00 in0.0 mm 0.00 in0.0 mm
09:36 AM 79.6°F26.4°C 68.8°F20.4°C 69% 3.2 mph SSE5.1 kmh SSE 6.3 mph10.1 kmh 29.58 in1001.7 mb 0.00 in0.0 mm 0.00 in0.0 mm 0.00 in0.0 mm
09:31 AM 79.2°F26.2°C 67.6°F19.8°C 67% 3.9 mph SSE6.3 kmh SSE 6.7 mph10.8 kmh 29.57 in1001.4 mb 0.00 in0.0 mm 0.00 in0.0 mm 0.00 in0.0 mm
09:26 AM 79.2°F26.2°C 67.6°F19.8°C 67% 3.2 mph S5.1 kmh S 8.2 mph13.2 kmh 29.57 in1001.4 mb 0.00 in0.0 mm 0.00 in0.0 mm 0.00 in0.0 mm
09:21 AM 79.9°F26.6°C 67.8°F19.9°C 66% 3.0 mph S4.8 kmh S 8.2 mph13.2 kmh 29.56 in1001.0 mb 0.00 in0.0 mm 0.00 in0.0 mm 0.00 in0.0 mm
09:16 AM 80.7°F27.1°C 68.5°F20.3°C 66% 5.4 mph S8.7 kmh S 8.2 mph13.2 kmh 29.56 in1001.0 mb 0.00 in0.0 mm 0.00 in0.0 mm 0.00 in0.0 mm
09:11 AM 79.9°F26.6°C 67.8°F19.9°C 66% 4.3 mph S6.9 kmh S 9.8 mph15.8 kmh 29.55 in1000.7 mb 0.00 in0.0 mm 0.00 in0.0 mm 0.00 in0.0 mm
09:06 AM 79.6°F26.4°C 67.5°F19.7°C 66% 5.9 mph SSE9.5 kmh SSE 9.8 mph15.8 kmh 29.55 in1000.7 mb 0.00 in0.0 mm 0.00 in0.0 mm 0.00 in0.0 mm
09:01 AM 79.8°F26.6°C 68.1°F20.1°C 67% 2.4 mph SSE3.9 kmh SSE 10.2 mph16.4 kmh 29.55 in1000.7 mb 0.00 in0.0 mm 0.00 in0.0 mm 0.00 in0.0 mm
08:56 AM 79.9°F26.6°C 67.8°F19.9°C 66% 5.5 mph S8.9 kmh S 10.2 mph16.4 kmh 29.55 in1000.7 mb 0.00 in0.0 mm 0.00 in0.0 mm 0.00 in0.0 mm
08:51 AM 80.3°F26.8°C 68.6°F20.3°C 67% 3.1 mph SSE5.0 kmh SSE 8.2 mph13.2 kmh 29.54 in1000.3 mb 0.00 in0.0 mm 0.00 in0.0 mm 0.00 in0.0 mm
08:46 AM 80.3°F26.8°C 68.6°F20.3°C 67% 4.5 mph SE7.2 kmh SE 8.2 mph13.2 kmh 29.54 in1000.3 mb 0.00 in0.0 mm 0.00 in0.0 mm 0.00 in0.0 mm
08:41 AM 80.5°F26.9°C 69.2°F20.7°C 68% 4.7 mph S7.6 kmh S 7.9 mph12.7 kmh 29.54 in1000.3 mb 0.00 in0.0 mm 0.00 in0.0 mm 0.00 in0.0 mm
08:36 AM 80.1°F26.7°C 68.8°F20.4°C 68% 2.9 mph SE4.7 kmh SE 10.5 mph16.9 kmh 29.54 in1000.3 mb 0.00 in0.0 mm 0.00 in0.0 mm 0.00 in0.0 mm
08:31 AM 79.4°F26.3°C 68.2°F20.1°C 68% 4.0 mph SSE6.4 kmh SSE 11.0 mph17.7 kmh 29.54 in1000.3 mb 0.00 in0.0 mm 0.00 in0.0 mm 0.00 in0.0 mm
08:26 AM 79.0°F26.1°C 68.1°F20.1°C 69% 6.5 mph SE10.5 kmh SE 11.0 mph17.7 kmh 29.54 in1000.3 mb 0.00 in0.0 mm 0.00 in0.0 mm 0.00 in0.0 mm
08:21 AM 78.2°F25.7°C 67.8°F19.9°C 70% 3.0 mph S4.8 kmh S 10.5 mph16.9 kmh 29.54 in1000.3 mb 0.00 in0.0 mm 0.00 in0.0 mm 0.00 in0.0 mm
08:16 AM 77.3°F25.2°C 67.8°F19.9°C 72% 4.3 mph SE6.9 kmh SE 11.0 mph17.7 kmh 29.54 in1000.3 mb 0.00 in0.0 mm 0.00 in0.0 mm 0.00 in0.0 mm
08:11 AM 76.4°F24.7°C 68.1°F20.1°C 75% 6.1 mph SE9.8 kmh SE 11.0 mph17.7 kmh 29.55 in1000.7 mb 0.00 in0.0 mm 0.00 in0.0 mm 0.00 in0.0 mm
08:06 AM 74.7°F23.7°C 67.9°F19.9°C 79% 4.9 mph SE7.9 kmh SE 9.4 mph15.1 kmh 29.55 in1000.7 mb 0.00 in0.0 mm 0.00 in0.0 mm 0.00 in0.0 mm
08:01 AM 72.8°F22.7°C 67.4°F19.7°C 83% 3.9 mph SE6.3 kmh SE 9.4 mph15.1 kmh 29.56 in1001.0 mb 0.00 in0.0 mm 0.00 in0.0 mm 0.00 in0.0 mm
07:56 AM 70.0°F21.1°C 65.3°F18.5°C 85% 5.1 mph SE8.2 kmh SE 8.9 mph14.3 kmh 29.56 in1001.0 mb 0.00 in0.0 mm 0.00 in0.0 mm 0.00 in0.0 mm
07:51 AM 68.5°F20.3°C 64.1°F17.8°C 86% 2.1 mph SE3.4 kmh SE 7.0 mph11.3 kmh 29.56 in1001.0 mb 0.00 in0.0 mm 0.00 in0.0 mm 0.00 in0.0 mm
07:46 AM 67.9°F19.9°C 63.9°F17.7°C 87% 3.5 mph SE5.6 kmh SE 6.7 mph10.8 kmh 29.56 in1001.0 mb 0.00 in0.0 mm 0.00 in0.0 mm 0.00 in0.0 mm
07:41 AM 67.6°F19.8°C 63.6°F17.6°C 87% 2.0 mph SSE3.2 kmh SSE 6.3 mph10.1 kmh 29.56 in1001.0 mb 0.00 in0.0 mm 0.00 in0.0 mm 0.00 in0.0 mm
07:36 AM 67.2°F19.6°C 63.5°F17.5°C 88% 2.1 mph SSE3.4 kmh SSE 6.3 mph10.1 kmh 29.56 in1001.0 mb 0.00 in0.0 mm 0.00 in0.0 mm 0.00 in0.0 mm
07:31 AM 67.0°F19.4°C 63.3°F17.4°C 88% 2.1 mph SE3.4 kmh SE 5.4 mph8.7 kmh 29.56 in1001.0 mb 0.00 in0.0 mm 0.00 in0.0 mm 0.00 in0.0 mm
07:26 AM 66.7°F19.3°C 63.1°F17.3°C 88% 2.5 mph SSE4.0 kmh SSE 5.4 mph8.7 kmh 29.57 in1001.4 mb 0.00 in0.0 mm 0.00 in0.0 mm 0.00 in0.0 mm
07:21 AM 66.3°F19.1°C 62.7°F17.1°C 88% 2.7 mph SSE4.3 kmh SSE 5.1 mph8.2 kmh 29.57 in1001.4 mb 0.00 in0.0 mm 0.00 in0.0 mm 0.00 in0.0 mm
07:16 AM 66.0°F18.9°C 62.3°F16.8°C 88% 2.4 mph S3.9 kmh S 5.1 mph8.2 kmh 29.57 in1001.4 mb 0.00 in0.0 mm 0.00 in0.0 mm 0.00 in0.0 mm
07:11 AM 65.5°F18.6°C 61.8°F16.6°C 88% 2.6 mph SSE4.2 kmh SSE 5.1 mph8.2 kmh 29.57 in1001.4 mb 0.00 in0.0 mm 0.00 in0.0 mm 0.00 in0.0 mm
07:06 AM 65.3°F18.5°C 61.6°F16.4°C 88% 1.2 mph SE1.9 kmh SE 3.1 mph5.0 kmh 29.57 in1001.4 mb 0.00 in0.0 mm 0.00 in0.0 mm 0.00 in0.0 mm
07:01 AM 65.0°F18.3°C 61.3°F16.3°C 88% 1.2 mph SE1.9 kmh SE 3.1 mph5.0 kmh 29.57 in1001.4 mb 0.00 in0.0 mm 0.00 in0.0 mm 0.00 in0.0 mm
06:56 AM 64.8°F18.2°C 61.5°F16.4°C 89% 0.3 mph ESE0.5 kmh ESE 2.3 mph3.7 kmh 29.57 in1001.4 mb 0.00 in0.0 mm 0.00 in0.0 mm 0.00 in0.0 mm
06:51 AM 64.6°F18.1°C 61.3°F16.3°C 89% 0.9 mph ESE1.4 kmh ESE 3.9 mph6.3 kmh 29.57 in1001.4 mb 0.00 in0.0 mm 0.00 in0.0 mm 0.00 in0.0 mm
06:46 AM 64.4°F18.0°C 61.1°F16.2°C 89% 1.1 mph SE1.8 kmh SE 4.4 mph7.1 kmh 29.56 in1001.0 mb 0.00 in0.0 mm 0.00 in0.0 mm 0.00 in0.0 mm
06:41 AM 64.1°F17.8°C 60.8°F16.0°C 89% 1.5 mph SE2.4 kmh SE 4.4 mph7.1 kmh 29.56 in1001.0 mb 0.00 in0.0 mm 0.00 in0.0 mm 0.00 in0.0 mm
06:36 AM 63.9°F17.7°C 60.6°F15.9°C 89% 1.2 mph SE1.9 kmh SE 4.4 mph7.1 kmh 29.56 in1001.0 mb 0.00 in0.0 mm 0.00 in0.0 mm 0.00 in0.0 mm
06:31 AM 63.5°F17.5°C 60.2°F15.7°C 89% 2.2 mph SSE3.5 kmh SSE 3.9 mph6.3 kmh 29.55 in1000.7 mb 0.00 in0.0 mm 0.00 in0.0 mm 0.00 in0.0 mm
06:26 AM 63.2°F17.3°C 59.9°F15.5°C 89% 0.9 mph SE1.4 kmh SE 1.9 mph3.1 kmh 29.55 in1000.7 mb 0.00 in0.0 mm 0.00 in0.0 mm 0.00 in0.0 mm
06:21 AM 63.2°F17.3°C 59.6°F15.3°C 88% 0.7 mph ESE1.1 kmh ESE 3.1 mph5.0 kmh 29.55 in1000.7 mb 0.00 in0.0 mm 0.00 in0.0 mm 0.00 in0.0 mm
06:16 AM 63.2°F17.3°C 59.9°F15.5°C 89% 0.6 mph ESE1.0 kmh ESE 3.1 mph5.0 kmh 29.55 in1000.7 mb 0.00 in0.0 mm 0.00 in0.0 mm 0.00 in0.0 mm
06:11 AM 63.2°F17.3°C 59.9°F15.5°C 89% 0.6 mph ESE1.0 kmh ESE 2.8 mph4.5 kmh 29.55 in1000.7 mb 0.00 in0.0 mm 0.00 in0.0 mm 0.00 in0.0 mm
06:06 AM 63.2°F17.3°C 59.9°F15.5°C 89% 0.8 mph ESE1.3 kmh ESE 2.8 mph4.5 kmh 29.55 in1000.7 mb 0.00 in0.0 mm 0.00 in0.0 mm 0.00 in0.0 mm
06:01 AM 63.2°F17.3°C 59.6°F15.3°C 88% 1.1 mph E1.8 kmh E 3.1 mph5.0 kmh 29.55 in1000.7 mb 0.00 in0.0 mm 0.00 in0.0 mm 0.00 in0.0 mm
05:56 AM 63.2°F17.3°C 59.6°F15.3°C 88% 1.7 mph E2.7 kmh E 3.1 mph5.0 kmh 29.55 in1000.7 mb 0.00 in0.0 mm 0.00 in0.0 mm 0.00 in0.0 mm
05:51 AM 63.2°F17.3°C 59.3°F15.2°C 87% 1.1 mph ESE1.8 kmh ESE 5.4 mph8.7 kmh 29.55 in1000.7 mb 0.00 in0.0 mm 0.00 in0.0 mm 0.00 in0.0 mm
05:46 AM 63.2°F17.3°C 59.3°F15.2°C 87% 1.2 mph E1.9 kmh E 5.4 mph8.7 kmh 29.55 in1000.7 mb 0.00 in0.0 mm 0.00 in0.0 mm 0.00 in0.0 mm
05:41 AM 63.0°F17.2°C 59.1°F15.1°C 87% 0.4 mph E0.6 kmh E 2.3 mph3.7 kmh 29.55 in1000.7 mb 0.00 in0.0 mm 0.00 in0.0 mm 0.00 in0.0 mm
05:36 AM 63.0°F17.2°C 59.1°F15.1°C 87% 0.5 mph E0.8 kmh E 2.8 mph4.5 kmh 29.55 in1000.7 mb 0.00 in0.0 mm 0.00 in0.0 mm 0.00 in0.0 mm
05:31 AM 63.0°F17.2°C 59.1°F15.1°C 87% 0.5 mph ENE0.8 kmh ENE 2.8 mph4.5 kmh 29.55 in1000.7 mb 0.00 in0.0 mm 0.00 in0.0 mm 0.00 in0.0 mm
05:26 AM 63.0°F17.2°C 59.1°F15.1°C 87% 0.9 mph E1.4 kmh E 2.8 mph4.5 kmh 29.55 in1000.7 mb 0.00 in0.0 mm 0.00 in0.0 mm 0.00 in0.0 mm
05:21 AM 63.0°F17.2°C 59.1°F15.1°C 87% 0.3 mph E0.5 kmh E 1.2 mph1.9 kmh 29.55 in1000.7 mb 0.00 in0.0 mm 0.00 in0.0 mm 0.00 in0.0 mm
05:16 AM 63.0°F17.2°C 59.1°F15.1°C 87% 0.5 mph E0.8 kmh E 1.6 mph2.6 kmh 29.55 in1000.7 mb 0.00 in0.0 mm 0.00 in0.0 mm 0.00 in0.0 mm
05:11 AM 63.0°F17.2°C 59.1°F15.1°C 87% 0.8 mph ESE1.3 kmh ESE 1.9 mph3.1 kmh 29.55 in1000.7 mb 0.00 in0.0 mm 0.00 in0.0 mm 0.00 in0.0 mm
05:06 AM 63.0°F17.2°C 59.1°F15.1°C 87% 0.4 mph ESE0.6 kmh ESE 1.9 mph3.1 kmh 29.55 in1000.7 mb 0.00 in0.0 mm 0.00 in0.0 mm 0.00 in0.0 mm
05:00 AM 63.0°F17.2°C 59.1°F15.1°C 87% 0.4 mph ESE0.6 kmh ESE 1.9 mph3.1 kmh 29.56 in1001.0 mb 0.00 in0.0 mm 0.00 in0.0 mm 0.00 in0.0 mm
04:55 AM 62.9°F17.2°C 58.9°F14.9°C 87% 0.6 mph ESE1.0 kmh ESE 1.6 mph2.6 kmh 29.56 in1001.0 mb 0.00 in0.0 mm 0.00 in0.0 mm 0.00 in0.0 mm
04:51 AM 63.0°F17.2°C 59.1°F15.1°C 87% 0.7 mph ESE1.1 kmh ESE 1.2 mph1.9 kmh 29.56 in1001.0 mb 0.00 in0.0 mm 0.00 in0.0 mm 0.00 in0.0 mm
04:45 AM 63.0°F17.2°C 59.1°F15.1°C 87% Calm Calm 1.2 mph1.9 kmh 29.56 in1001.0 mb 0.00 in0.0 mm 0.00 in0.0 mm 0.00 in0.0 mm
04:40 AM 63.2°F17.3°C 59.0°F15.0°C 86% 0.7 mph E1.1 kmh E 1.2 mph1.9 kmh 29.56 in1001.0 mb 0.00 in0.0 mm 0.00 in0.0 mm 0.00 in0.0 mm
04:35 AM 63.2°F17.3°C 59.0°F15.0°C 86% 0.3 mph E0.5 kmh E 1.2 mph1.9 kmh 29.56 in1001.0 mb 0.00 in0.0 mm 0.00 in0.0 mm 0.00 in0.0 mm
04:30 AM 63.2°F17.3°C 59.3°F15.2°C 87% 0.4 mph E0.6 kmh E 2.3 mph3.7 kmh 29.56 in1001.0 mb 0.00 in0.0 mm 0.00 in0.0 mm 0.00 in0.0 mm
04:25 AM 63.3°F17.4°C 59.4°F15.2°C 87% 0.6 mph E1.0 kmh E 2.3 mph3.7 kmh 29.56 in1001.0 mb 0.00 in0.0 mm 0.00 in0.0 mm 0.00 in0.0 mm
04:20 AM 63.3°F17.4°C 59.4°F15.2°C 87% 0.3 mph E0.5 kmh E 3.1 mph5.0 kmh 29.55 in1000.7 mb 0.00 in0.0 mm 0.00 in0.0 mm 0.00 in0.0 mm
04:15 AM 63.5°F17.5°C 59.6°F15.3°C 87% 1.2 mph ESE1.9 kmh ESE 3.1 mph5.0 kmh 29.55 in1000.7 mb 0.00 in0.0 mm 0.00 in0.0 mm 0.00 in0.0 mm
04:10 AM 63.5°F17.5°C 59.6°F15.3°C 87% 1.1 mph E1.8 kmh E 3.1 mph5.0 kmh 29.55 in1000.7 mb 0.00 in0.0 mm 0.00 in0.0 mm 0.00 in0.0 mm
04:05 AM 63.5°F17.5°C 59.6°F15.3°C 87% 0.6 mph ESE1.0 kmh ESE 3.1 mph5.0 kmh 29.55 in1000.7 mb 0.00 in0.0 mm 0.00 in0.0 mm 0.00 in0.0 mm
04:00 AM 63.5°F17.5°C 59.6°F15.3°C 87% 0.9 mph E1.4 kmh E 3.5 mph5.6 kmh 29.55 in1000.7 mb 0.00 in0.0 mm 0.00 in0.0 mm 0.00 in0.0 mm
03:55 AM 63.5°F17.5°C 59.6°F15.3°C 87% 1.8 mph E2.9 kmh E 3.5 mph5.6 kmh 29.56 in1001.0 mb 0.00 in0.0 mm 0.00 in0.0 mm 0.00 in0.0 mm
03:50 AM 63.5°F17.5°C 59.3°F15.2°C 86% 1.3 mph E2.1 kmh E 3.1 mph5.0 kmh 29.56 in1001.0 mb 0.00 in0.0 mm 0.00 in0.0 mm 0.00 in0.0 mm
03:45 AM 63.5°F17.5°C 59.3°F15.2°C 86% 0.8 mph E1.3 kmh E 1.9 mph3.1 kmh 29.56 in1001.0 mb 0.00 in0.0 mm 0.00 in0.0 mm 0.00 in0.0 mm
03:40 AM 63.5°F17.5°C 59.3°F15.2°C 86% 0.7 mph E1.1 kmh E 1.9 mph3.1 kmh 29.56 in1001.0 mb 0.00 in0.0 mm 0.00 in0.0 mm 0.00 in0.0 mm
03:35 AM 63.5°F17.5°C 59.3°F15.2°C 86% 0.5 mph E0.8 kmh E 1.9 mph3.1 kmh 29.56 in1001.0 mb 0.00 in0.0 mm 0.00 in0.0 mm 0.00 in0.0 mm
03:30 AM 63.5°F17.5°C 59.3°F15.2°C 86% 0.3 mph E0.5 kmh E 0.7 mph1.1 kmh 29.56 in1001.0 mb 0.00 in0.0 mm 0.00 in0.0 mm 0.00 in0.0 mm
03:25 AM 63.7°F17.6°C 59.5°F15.3°C 86% 0.3 mph E0.5 kmh E 0.7 mph1.1 kmh 29.56 in1001.0 mb 0.00 in0.0 mm 0.00 in0.0 mm 0.00 in0.0 mm
03:20 AM 63.9°F17.7°C 59.7°F15.4°C 86% 0.3 mph E0.5 kmh E 1.9 mph3.1 kmh 29.56 in1001.0 mb 0.00 in0.0 mm 0.00 in0.0 mm 0.00 in0.0 mm
03:15 AM 63.9°F17.7°C 59.7°F15.4°C 86% 0.8 mph E1.3 kmh E 1.9 mph3.1 kmh 29.56 in1001.0 mb 0.00 in0.0 mm 0.00 in0.0 mm 0.00 in0.0 mm
03:10 AM 63.9°F17.7°C 59.3°F15.2°C 85% Calm Calm 1.9 mph3.1 kmh 29.56 in1001.0 mb 0.00 in0.0 mm 0.00 in0.0 mm 0.00 in0.0 mm
03:05 AM 63.9°F17.7°C 59.3°F15.2°C 85% 0.4 mph E0.6 kmh E 1.9 mph3.1 kmh 29.56 in1001.0 mb 0.00 in0.0 mm 0.00 in0.0 mm 0.00 in0.0 mm
03:00 AM 64.1°F17.8°C 59.5°F15.3°C 85% 0.5 mph SE0.8 kmh SE 1.6 mph2.6 kmh 29.56 in1001.0 mb 0.00 in0.0 mm 0.00 in0.0 mm 0.00 in0.0 mm
02:55 AM 64.2°F17.9°C 59.6°F15.3°C 85% 0.3 mph SE0.5 kmh SE 1.6 mph2.6 kmh 29.57 in1001.4 mb 0.00 in0.0 mm 0.00 in0.0 mm 0.00 in0.0 mm
02:50 AM 64.2°F17.9°C 59.6°F15.3°C 85% 0.6 mph ESE1.0 kmh ESE 1.6 mph2.6 kmh 29.57 in1001.4 mb 0.00 in0.0 mm 0.00 in0.0 mm 0.00 in0.0 mm
02:45 AM 64.4°F18.0°C 59.5°F15.3°C 84% 0.7 mph ESE1.1 kmh ESE 1.2 mph1.9 kmh 29.57 in1001.4 mb 0.00 in0.0 mm 0.00 in0.0 mm 0.00 in0.0 mm
02:40 AM 64.4°F18.0°C 59.5°F15.3°C 84% 0.4 mph ESE0.6 kmh ESE 0.7 mph1.1 kmh 29.57 in1001.4 mb 0.00 in0.0 mm 0.00 in0.0 mm 0.00 in0.0 mm
02:35 AM 64.6°F18.1°C 59.7°F15.4°C 84% Calm Calm 0.3 mph0.5 kmh 29.57 in1001.4 mb 0.00 in0.0 mm 0.00 in0.0 mm 0.00 in0.0 mm
02:30 AM 64.6°F18.1°C 59.7°F15.4°C 84% Calm Calm 1.9 mph3.1 kmh 29.57 in1001.4 mb 0.00 in0.0 mm 0.00 in0.0 mm 0.00 in0.0 mm
02:25 AM 65.0°F18.3°C 60.1°F15.6°C 84% 0.3 mph ESE0.5 kmh ESE 1.9 mph3.1 kmh 29.57 in1001.4 mb 0.00 in0.0 mm 0.00 in0.0 mm 0.00 in0.0 mm
02:20 AM 65.0°F18.3°C 60.1°F15.6°C 84% 0.4 mph ESE0.6 kmh ESE 1.2 mph1.9 kmh 29.56 in1001.0 mb 0.00 in0.0 mm 0.00 in0.0 mm 0.00 in0.0 mm
02:15 AM 65.1°F18.4°C 60.2°F15.7°C 84% 0.5 mph ESE0.8 kmh ESE 1.2 mph1.9 kmh 29.56 in1001.0 mb 0.00 in0.0 mm 0.00 in0.0 mm 0.00 in0.0 mm
02:10 AM 65.1°F18.4°C 59.8°F15.4°C 83% 0.3 mph ESE0.5 kmh ESE 1.2 mph1.9 kmh 29.57 in1001.4 mb 0.00 in0.0 mm 0.00 in0.0 mm 0.00 in0.0 mm
02:05 AM 65.3°F18.5°C 60.0°F15.6°C 83% 0.4 mph ESE0.6 kmh ESE 0.7 mph1.1 kmh 29.57 in1001.4 mb 0.00 in0.0 mm 0.00 in0.0 mm 0.00 in0.0 mm
02:00 AM 65.3°F18.5°C 60.0°F15.6°C 83% 0.3 mph ESE0.5 kmh ESE 1.6 mph2.6 kmh 29.57 in1001.4 mb 0.00 in0.0 mm 0.00 in0.0 mm 0.00 in0.0 mm
01:55 AM 65.5°F18.6°C 60.2°F15.7°C 83% 0.5 mph ESE0.8 kmh ESE 3.1 mph5.0 kmh 29.57 in1001.4 mb 0.00 in0.0 mm 0.00 in0.0 mm 0.00 in0.0 mm
01:50 AM 65.5°F18.6°C 60.2°F15.7°C 83% 0.8 mph E1.3 kmh E 3.1 mph5.0 kmh 29.57 in1001.4 mb 0.00 in0.0 mm 0.00 in0.0 mm 0.00 in0.0 mm
01:45 AM 65.7°F18.7°C 60.4°F15.8°C 83% 0.9 mph ESE1.4 kmh ESE 1.9 mph3.1 kmh 29.57 in1001.4 mb 0.00 in0.0 mm 0.00 in0.0 mm 0.00 in0.0 mm
01:40 AM 65.7°F18.7°C 60.1°F15.6°C 82% 0.7 mph ESE1.1 kmh ESE 1.9 mph3.1 kmh 29.57 in1001.4 mb 0.00 in0.0 mm 0.00 in0.0 mm 0.00 in0.0 mm
01:35 AM 65.9°F18.8°C 60.3°F15.7°C 82% 0.7 mph SE1.1 kmh SE 1.9 mph3.1 kmh 29.57 in1001.4 mb 0.00 in0.0 mm 0.00 in0.0 mm 0.00 in0.0 mm
01:30 AM 65.9°F18.8°C 60.3°F15.7°C 82% 0.5 mph ESE0.8 kmh ESE 1.9 mph3.1 kmh 29.57 in1001.4 mb 0.00 in0.0 mm 0.00 in0.0 mm 0.00 in0.0 mm
01:25 AM 65.9°F18.8°C 60.3°F15.7°C 82% 0.7 mph ESE1.1 kmh ESE 1.9 mph3.1 kmh 29.58 in1001.7 mb 0.00 in0.0 mm 0.00 in0.0 mm 0.00 in0.0 mm
01:20 AM 65.9°F18.8°C 60.3°F15.7°C 82% 1.1 mph E1.8 kmh E 1.9 mph3.1 kmh 29.58 in1001.7 mb 0.00 in0.0 mm 0.00 in0.0 mm 0.00 in0.0 mm
01:15 AM 66.0°F18.9°C 60.4°F15.8°C 82% 0.3 mph ESE0.5 kmh ESE 1.9 mph3.1 kmh 29.58 in1001.7 mb 0.00 in0.0 mm 0.00 in0.0 mm 0.00 in0.0 mm
01:10 AM 66.0°F18.9°C 60.0°F15.6°C 81% 0.6 mph E1.0 kmh E 1.2 mph1.9 kmh 29.57 in1001.4 mb 0.00 in0.0 mm 0.00 in0.0 mm 0.00 in0.0 mm
01:05 AM 66.0°F18.9°C 60.0°F15.6°C 81% 0.3 mph ESE0.5 kmh ESE 0.7 mph1.1 kmh 29.57 in1001.4 mb 0.00 in0.0 mm 0.00 in0.0 mm 0.00 in0.0 mm
01:00 AM 66.2°F19.0°C 60.2°F15.7°C 81% Calm Calm 0.7 mph1.1 kmh 29.57 in1001.4 mb 0.00 in0.0 mm 0.00 in0.0 mm 0.00 in0.0 mm
12:55 AM 66.3°F19.1°C 60.4°F15.8°C 81% 0.3 mph ESE0.5 kmh ESE 0.7 mph1.1 kmh 29.57 in1001.4 mb 0.00 in0.0 mm 0.00 in0.0 mm 0.00 in0.0 mm
12:50 AM 66.5°F19.2°C 60.3°F15.7°C 80% Calm Calm 0.7 mph1.1 kmh 29.57 in1001.4 mb 0.00 in0.0 mm 0.00 in0.0 mm 0.00 in0.0 mm
12:45 AM 66.7°F19.3°C 60.4°F15.8°C 80% Calm Calm 0.7 mph1.1 kmh 29.57 in1001.4 mb 0.00 in0.0 mm 0.00 in0.0 mm 0.00 in0.0 mm
12:40 AM 66.7°F19.3°C 60.4°F15.8°C 80% 0.6 mph ESE1.0 kmh ESE 0.7 mph1.1 kmh 29.57 in1001.4 mb 0.00 in0.0 mm 0.00 in0.0 mm 0.00 in0.0 mm
12:35 AM 66.8°F19.3°C 60.5°F15.8°C 80% Calm Calm 0.7 mph1.1 kmh 29.57 in1001.4 mb 0.00 in0.0 mm 0.00 in0.0 mm 0.00 in0.0 mm
12:30 AM 67.0°F19.4°C 60.7°F15.9°C 80% 0.4 mph ESE0.6 kmh ESE 0.7 mph1.1 kmh 29.57 in1001.4 mb 0.00 in0.0 mm 0.00 in0.0 mm 0.00 in0.0 mm
12:25 AM 67.2°F19.6°C 60.9°F16.1°C 80% 0.5 mph ESE0.8 kmh ESE 1.6 mph2.6 kmh 29.57 in1001.4 mb 0.00 in0.0 mm 0.00 in0.0 mm 0.00 in0.0 mm
12:20 AM 67.2°F19.6°C 60.9°F16.1°C 80% 0.6 mph ESE1.0 kmh ESE 1.6 mph2.6 kmh 29.56 in1001.0 mb 0.00 in0.0 mm 0.00 in0.0 mm 0.00 in0.0 mm
12:15 AM 67.4°F19.7°C 60.8°F16.0°C 79% 0.6 mph E1.0 kmh E 1.9 mph3.1 kmh 29.56 in1001.0 mb 0.00 in0.0 mm 0.00 in0.0 mm 0.00 in0.0 mm
12:10 AM 67.4°F19.7°C 60.8°F16.0°C 79% 0.8 mph E1.3 kmh E 1.9 mph3.1 kmh 29.56 in1001.0 mb 0.00 in0.0 mm 0.00 in0.0 mm 0.00 in0.0 mm
12:05 AM 67.6°F19.8°C 61.0°F16.1°C 79% Calm Calm 3.9 mph6.3 kmh 29.56 in1001.0 mb 0.00 in0.0 mm 0.00 in0.0 mm 0.00 in0.0 mm
12:00 AM 67.7°F19.8°C 61.0°F16.1°C 79% 0.5 mph E0.8 kmh E 3.9 mph6.3 kmh 29.56 in1001.0 mb 0.00 in0.0 mm 0.00 in0.0 mm 0.00 in0.0 mm